Search for airport 
image banner adimage banner adimage banner ad
image banner ad

PS90 - Ramada Inn-Gettysburg

Located in Gettysburg, United States

ICAO - PS90, IATA -

Data provided by Airmate  

General information

Coordinates: N39°46'0" W77°16'14"
Elevation is 510 feet MSL.
Magnetic variation is -10° East
View others Airports in Pennsylvania

Operational data

Special qualification required
Current time UTC:
Current local time:
METAR: KDMW 091615Z AUTO 13003KT 10SM -DZ SCT060 BKN080 11/07 A3005 RMK AO2
View NOTAMs / SUP AIP / TFR affecting this airport [VIEW]
Communications frequencies: [VIEW]

Runways:

Airport contact information

Address: Gettysburg United States

Satellite view of PS90